Americo Brasiliense, Brazil
Current Conditions -  °F | °C
As of 5:00 PM on Sunday 21 Dec 2014 (Local Time) from SBRP Reporting Station
Light Rain Light Rain  
Wind Chill: 73°   Ceiling: 10000
Heat Index: 73°   Visibility: 6mi
Dew Point: 70°   Wind: 7mph
Humidity: 88%   Direction: 350°N
Pressure: NA   Gusts: NA
Location:  21.72°S, 48.1°W
Report Text: SBRP 211900Z 35006KT 9999 -RA SCT035 FEW040TCU BKN100 23/21 Q1010 RETSRA
Loading
Personal Weather Stations






























Interactive Weather Map New forecast layout! Learn more

10-Day Weather Forecast

Advertisements
Track Severe Weather on mobile